sensor_id;sensor_type;location;lat;lon;timestamp;temperature;humidity
64937;SHT30;51452;47.698;19.050;2024-03-08T00:00:12;6.52;76.19
64937;SHT30;51452;47.698;19.050;2024-03-08T00:02:39;6.68;76.74
64937;SHT30;51452;47.698;19.050;2024-03-08T00:05:05;6.71;75.82
64937;SHT30;51452;47.698;19.050;2024-03-08T00:07:31;6.59;76.38
64937;SHT30;51452;47.698;19.050;2024-03-08T00:09:56;6.61;76.70
64937;SHT30;51452;47.698;19.050;2024-03-08T00:12:22;6.82;76.77
64937;SHT30;51452;47.698;19.050;2024-03-08T00:14:47;6.79;76.59
64937;SHT30;51452;47.698;19.050;2024-03-08T00:17:12;6.75;76.67
64937;SHT30;51452;47.698;19.050;2024-03-08T00:19:38;6.90;76.23
64937;SHT30;51452;47.698;19.050;2024-03-08T00:22:05;6.69;75.63
64937;SHT30;51452;47.698;19.050;2024-03-08T00:24:30;6.71;75.65
64937;SHT30;51452;47.698;19.050;2024-03-08T00:26:56;6.56;76.33
64937;SHT30;51452;47.698;19.050;2024-03-08T00:29:21;6.59;76.86
64937;SHT30;51452;47.698;19.050;2024-03-08T00:31:47;6.72;77.22
64937;SHT30;51452;47.698;19.050;2024-03-08T00:34:13;6.75;76.28
64937;SHT30;51452;47.698;19.050;2024-03-08T00:36:38;6.76;76.02
64937;SHT30;51452;47.698;19.050;2024-03-08T00:39:04;6.79;76.98
64937;SHT30;51452;47.698;19.050;2024-03-08T00:41:32;6.92;76.27
64937;SHT30;51452;47.698;19.050;2024-03-08T00:43:57;6.88;75.47
64937;SHT30;51452;47.698;19.050;2024-03-08T00:46:23;6.81;76.08
64937;SHT30;51452;47.698;19.050;2024-03-08T00:48:48;6.85;76.26
64937;SHT30;51452;47.698;19.050;2024-03-08T00:51:13;6.90;76.06
64937;SHT30;51452;47.698;19.050;2024-03-08T00:53:40;6.96;75.85
64937;SHT30;51452;47.698;19.050;2024-03-08T00:56:07;6.83;76.09
64937;SHT30;51452;47.698;19.050;2024-03-08T00:58:36;6.99;76.04
64937;SHT30;51452;47.698;19.050;2024-03-08T01:01:02;7.02;76.15
64937;SHT30;51452;47.698;19.050;2024-03-08T01:03:27;7.00;76.31
64937;SHT30;51452;47.698;19.050;2024-03-08T01:05:52;6.92;75.78
64937;SHT30;51452;47.698;19.050;2024-03-08T01:08:18;6.97;76.00
64937;SHT30;51452;47.698;19.050;2024-03-08T01:10:43;6.82;75.82
64937;SHT30;51452;47.698;19.050;2024-03-08T01:13:09;6.69;76.22
64937;SHT30;51452;47.698;19.050;2024-03-08T01:15:34;6.82;76.33
64937;SHT30;51452;47.698;19.050;2024-03-08T01:18:00;6.86;76.96
64937;SHT30;51452;47.698;19.050;2024-03-08T01:20:26;6.92;76.42
64937;SHT30;51452;47.698;19.050;2024-03-08T01:22:53;7.02;76.30
64937;SHT30;51452;47.698;19.050;2024-03-08T01:25:18;7.04;76.44
64937;SHT30;51452;47.698;19.050;2024-03-08T01:27:43;7.06;76.79
64937;SHT30;51452;47.698;19.050;2024-03-08T01:30:09;7.16;75.79
64937;SHT30;51452;47.698;19.050;2024-03-08T01:32:35;7.20;76.13
64937;SHT30;51452;47.698;19.050;2024-03-08T01:35:00;7.16;76.19
64937;SHT30;51452;47.698;19.050;2024-03-08T01:37:26;7.17;76.09
64937;SHT30;51452;47.698;19.050;2024-03-08T01:39:51;7.24;75.63
64937;SHT30;51452;47.698;19.050;2024-03-08T01:42:17;7.14;75.75
64937;SHT30;51452;47.698;19.050;2024-03-08T01:44:43;7.10;75.73
64937;SHT30;51452;47.698;19.050;2024-03-08T01:47:10;7.07;74.63
64937;SHT30;51452;47.698;19.050;2024-03-08T01:49:36;7.03;75.41
64937;SHT30;51452;47.698;19.050;2024-03-08T01:52:02;6.92;75.78
64937;SHT30;51452;47.698;19.050;2024-03-08T01:54:29;7.04;75.59
64937;SHT30;51452;47.698;19.050;2024-03-08T01:56:56;6.99;75.24
64937;SHT30;51452;47.698;19.050;2024-03-08T01:59:25;6.93;75.48
64937;SHT30;51452;47.698;19.050;2024-03-08T02:01:54;7.04;75.22
64937;SHT30;51452;47.698;19.050;2024-03-08T02:04:20;7.09;76.14
64937;SHT30;51452;47.698;19.050;2024-03-08T02:06:46;7.14;75.56
64937;SHT30;51452;47.698;19.050;2024-03-08T02:09:13;7.10;76.00
64937;SHT30;51452;47.698;19.050;2024-03-08T02:11:40;7.24;76.02
64937;SHT30;51452;47.698;19.050;2024-03-08T02:14:06;7.20;75.80
64937;SHT30;51452;47.698;19.050;2024-03-08T02:16:31;7.26;75.47
64937;SHT30;51452;47.698;19.050;2024-03-08T02:18:57;7.19;75.88
64937;SHT30;51452;47.698;19.050;2024-03-08T02:21:23;7.24;75.52
64937;SHT30;51452;47.698;19.050;2024-03-08T02:23:49;7.20;74.86
64937;SHT30;51452;47.698;19.050;2024-03-08T02:26:17;7.20;75.70
64937;SHT30;51452;47.698;19.050;2024-03-08T02:28:44;7.04;75.84
64937;SHT30;51452;47.698;19.050;2024-03-08T02:31:09;7.19;74.85
64937;SHT30;51452;47.698;19.050;2024-03-08T02:33:35;7.23;74.95
64937;SHT30;51452;47.698;19.050;2024-03-08T02:36:00;7.14;75.36
64937;SHT30;51452;47.698;19.050;2024-03-08T02:38:26;7.19;74.68
64937;SHT30;51452;47.698;19.050;2024-03-08T02:40:52;7.30;74.66
64937;SHT30;51452;47.698;19.050;2024-03-08T02:43:19;7.20;75.25
64937;SHT30;51452;47.698;19.050;2024-03-08T02:45:45;7.23;75.08
64937;SHT30;51452;47.698;19.050;2024-03-08T02:48:11;7.33;75.59
64937;SHT30;51452;47.698;19.050;2024-03-08T02:50:37;7.28;75.54
64937;SHT30;51452;47.698;19.050;2024-03-08T02:53:05;7.30;74.66
64937;SHT30;51452;47.698;19.050;2024-03-08T02:55:31;7.12;75.15
64937;SHT30;51452;47.698;19.050;2024-03-08T02:57:56;7.04;74.49
64937;SHT30;51452;47.698;19.050;2024-03-08T03:00:23;6.99;74.16
64937;SHT30;51452;47.698;19.050;2024-03-08T03:02:49;7.00;75.38
64937;SHT30;51452;47.698;19.050;2024-03-08T03:05:21;6.93;75.65
64937;SHT30;51452;47.698;19.050;2024-03-08T03:07:47;7.06;75.11
64937;SHT30;51452;47.698;19.050;2024-03-08T03:10:14;6.97;75.38
64937;SHT30;51452;47.698;19.050;2024-03-08T03:12:42;6.96;75.22
64937;SHT30;51452;47.698;19.050;2024-03-08T03:15:08;7.03;75.11
64937;SHT30;51452;47.698;19.050;2024-03-08T03:17:33;7.09;75.29
64937;SHT30;51452;47.698;19.050;2024-03-08T03:19:59;7.14;74.81
64937;SHT30;51452;47.698;19.050;2024-03-08T03:22:24;7.02;74.76
64937;SHT30;51452;47.698;19.050;2024-03-08T03:24:50;7.02;74.76
64937;SHT30;51452;47.698;19.050;2024-03-08T03:27:17;7.00;74.98
64937;SHT30;51452;47.698;19.050;2024-03-08T03:29:43;7.03;74.66
64937;SHT30;51452;47.698;19.050;2024-03-08T03:32:12;7.07;74.14
64937;SHT30;51452;47.698;19.050;2024-03-08T03:34:38;6.96;75.36
64937;SHT30;51452;47.698;19.050;2024-03-08T03:37:04;6.93;75.47
64937;SHT30;51452;47.698;19.050;2024-03-08T03:39:30;7.02;74.56
64937;SHT30;51452;47.698;19.050;2024-03-08T03:42:02;6.96;75.15
64937;SHT30;51452;47.698;19.050;2024-03-08T03:44:28;6.99;74.89
64937;SHT30;51452;47.698;19.050;2024-03-08T03:46:54;6.82;74.90
64937;SHT30;51452;47.698;19.050;2024-03-08T03:49:19;6.85;74.45
64937;SHT30;51452;47.698;19.050;2024-03-08T03:51:45;6.96;75.04
64937;SHT30;51452;47.698;19.050;2024-03-08T03:54:11;6.92;75.14
64937;SHT30;51452;47.698;19.050;2024-03-08T03:56:36;6.92;74.87
64937;SHT30;51452;47.698;19.050;2024-03-08T03:59:02;6.89;75.64
64937;SHT30;51452;47.698;19.050;2024-03-08T04:01:27;6.97;75.06
64937;SHT30;51452;47.698;19.050;2024-03-08T04:03:52;7.00;74.81
64937;SHT30;51452;47.698;19.050;2024-03-08T04:06:18;6.90;74.51
64937;SHT30;51452;47.698;19.050;2024-03-08T04:08:43;6.96;75.05
64937;SHT30;51452;47.698;19.050;2024-03-08T04:11:08;7.00;74.70
64937;SHT30;51452;47.698;19.050;2024-03-08T04:13:34;7.03;74.74
64937;SHT30;51452;47.698;19.050;2024-03-08T04:16:01;6.97;74.72
64937;SHT30;51452;47.698;19.050;2024-03-08T04:18:27;7.02;74.63
64937;SHT30;51452;47.698;19.050;2024-03-08T04:20:53;6.95;74.40
64937;SHT30;51452;47.698;19.050;2024-03-08T04:23:18;6.90;74.80
64937;SHT30;51452;47.698;19.050;2024-03-08T04:25:44;6.97;74.04
64937;SHT30;51452;47.698;19.050;2024-03-08T04:28:10;6.86;75.05
64937;SHT30;51452;47.698;19.050;2024-03-08T04:30:38;6.81;74.42
64937;SHT30;51452;47.698;19.050;2024-03-08T04:33:07;6.96;74.29
64937;SHT30;51452;47.698;19.050;2024-03-08T04:35:33;6.88;74.95
64937;SHT30;51452;47.698;19.050;2024-03-08T04:37:59;6.75;75.05
64937;SHT30;51452;47.698;19.050;2024-03-08T04:40:24;6.85;75.06
64937;SHT30;51452;47.698;19.050;2024-03-08T04:42:50;6.85;75.05
64937;SHT30;51452;47.698;19.050;2024-03-08T04:45:16;6.72;75.63
64937;SHT30;51452;47.698;19.050;2024-03-08T04:47:42;6.78;75.06
64937;SHT30;51452;47.698;19.050;2024-03-08T04:50:08;6.69;75.42
64937;SHT30;51452;47.698;19.050;2024-03-08T04:52:34;6.72;75.39
64937;SHT30;51452;47.698;19.050;2024-03-08T04:54:59;6.68;75.18
64937;SHT30;51452;47.698;19.050;2024-03-08T04:57:25;6.62;74.96
64937;SHT30;51452;47.698;19.050;2024-03-08T04:59:51;6.53;75.62
64937;SHT30;51452;47.698;19.050;2024-03-08T05:02:16;6.46;75.03
64937;SHT30;51452;47.698;19.050;2024-03-08T05:04:42;6.42;75.53
64937;SHT30;51452;47.698;19.050;2024-03-08T05:07:08;6.32;75.76
64937;SHT30;51452;47.698;19.050;2024-03-08T05:09:33;6.24;75.67
64937;SHT30;51452;47.698;19.050;2024-03-08T05:11:59;6.27;76.06
64937;SHT30;51452;47.698;19.050;2024-03-08T05:14:24;6.38;75.56
64937;SHT30;51452;47.698;19.050;2024-03-08T05:16:50;6.32;75.95
64937;SHT30;51452;47.698;19.050;2024-03-08T05:19:19;6.38;75.46
64937;SHT30;51452;47.698;19.050;2024-03-08T05:21:49;6.27;75.59
64937;SHT30;51452;47.698;19.050;2024-03-08T05:24:14;6.30;75.71
64937;SHT30;51452;47.698;19.050;2024-03-08T05:26:40;6.30;75.81
64937;SHT30;51452;47.698;19.050;2024-03-08T05:29:07;6.35;75.94
64937;SHT30;51452;47.698;19.050;2024-03-08T05:31:45;6.21;75.95
64937;SHT30;51452;47.698;19.050;2024-03-08T05:34:11;6.13;76.44
64937;SHT30;51452;47.698;19.050;2024-03-08T05:36:39;6.09;76.50
64937;SHT30;51452;47.698;19.050;2024-03-08T05:39:05;6.09;76.93
64937;SHT30;51452;47.698;19.050;2024-03-08T05:41:31;5.97;77.74
64937;SHT30;51452;47.698;19.050;2024-03-08T05:43:57;6.07;77.05
64937;SHT30;51452;47.698;19.050;2024-03-08T05:46:22;6.09;77.36
64937;SHT30;51452;47.698;19.050;2024-03-08T05:48:48;6.14;76.92
64937;SHT30;51452;47.698;19.050;2024-03-08T05:51:13;6.20;77.13
64937;SHT30;51452;47.698;19.050;2024-03-08T05:53:39;6.17;76.39
64937;SHT30;51452;47.698;19.050;2024-03-08T05:56:04;6.17;76.59
64937;SHT30;51452;47.698;19.050;2024-03-08T05:58:30;6.17;76.32
64937;SHT30;51452;47.698;19.050;2024-03-08T06:00:55;6.04;76.42
64937;SHT30;51452;47.698;19.050;2024-03-08T06:03:21;6.10;76.89
64937;SHT30;51452;47.698;19.050;2024-03-08T06:05:50;6.00;76.62
64937;SHT30;51452;47.698;19.050;2024-03-08T06:08:16;5.96;76.77
64937;SHT30;51452;47.698;19.050;2024-03-08T06:10:41;6.07;76.58
64937;SHT30;51452;47.698;19.050;2024-03-08T06:13:07;6.17;76.05
64937;SHT30;51452;47.698;19.050;2024-03-08T06:15:32;6.17;76.49
64937;SHT30;51452;47.698;19.050;2024-03-08T06:17:58;6.21;76.19
64937;SHT30;51452;47.698;19.050;2024-03-08T06:20:23;6.10;75.80
64937;SHT30;51452;47.698;19.050;2024-03-08T06:22:52;6.06;76.21
64937;SHT30;51452;47.698;19.050;2024-03-08T06:25:17;6.06;76.40
64937;SHT30;51452;47.698;19.050;2024-03-08T06:27:43;6.03;76.39
64937;SHT30;51452;47.698;19.050;2024-03-08T06:30:09;6.11;76.65
64937;SHT30;51452;47.698;19.050;2024-03-08T06:32:38;6.13;76.55
64937;SHT30;51452;47.698;19.050;2024-03-08T06:35:04;6.16;76.34
64937;SHT30;51452;47.698;19.050;2024-03-08T06:37:32;6.20;76.75
64937;SHT30;51452;47.698;19.050;2024-03-08T06:39:58;6.10;76.49
64937;SHT30;51452;47.698;19.050;2024-03-08T06:42:24;6.20;76.40
64937;SHT30;51452;47.698;19.050;2024-03-08T06:44:49;6.22;76.55
64937;SHT30;51452;47.698;19.050;2024-03-08T06:47:17;6.44;76.17
64937;SHT30;51452;47.698;19.050;2024-03-08T06:49:43;6.49;75.97
64937;SHT30;51452;47.698;19.050;2024-03-08T06:52:09;6.52;75.88
64937;SHT30;51452;47.698;19.050;2024-03-08T06:54:35;6.56;75.69
64937;SHT30;51452;47.698;19.050;2024-03-08T06:57:04;6.58;75.45
64937;SHT30;51452;47.698;19.050;2024-03-08T06:59:33;6.67;75.77
64937;SHT30;51452;47.698;19.050;2024-03-08T07:02:01;6.55;75.25
64937;SHT30;51452;47.698;19.050;2024-03-08T07:04:26;6.71;75.32
64937;SHT30;51452;47.698;19.050;2024-03-08T07:06:55;6.58;75.43
64937;SHT30;51452;47.698;19.050;2024-03-08T07:09:20;6.51;74.63
64937;SHT30;51452;47.698;19.050;2024-03-08T07:11:46;6.65;74.93
64937;SHT30;51452;47.698;19.050;2024-03-08T07:14:12;6.61;75.00
64937;SHT30;51452;47.698;19.050;2024-03-08T07:16:37;6.62;74.77
64937;SHT30;51452;47.698;19.050;2024-03-08T07:19:04;6.59;75.49
64937;SHT30;51452;47.698;19.050;2024-03-08T07:21:30;6.58;75.61
64937;SHT30;51452;47.698;19.050;2024-03-08T07:23:56;6.69;75.36
64937;SHT30;51452;47.698;19.050;2024-03-08T07:26:35;6.75;74.38
64937;SHT30;51452;47.698;19.050;2024-03-08T07:29:00;6.62;74.71
64937;SHT30;51452;47.698;19.050;2024-03-08T07:31:26;6.76;74.72
64937;SHT30;51452;47.698;19.050;2024-03-08T07:33:51;6.81;74.83
64937;SHT30;51452;47.698;19.050;2024-03-08T07:36:21;6.81;74.95
64937;SHT30;51452;47.698;19.050;2024-03-08T07:38:47;6.83;74.38
64937;SHT30;51452;47.698;19.050;2024-03-08T07:41:13;6.89;73.81
64937;SHT30;51452;47.698;19.050;2024-03-08T07:43:38;6.90;74.51
64937;SHT30;51452;47.698;19.050;2024-03-08T07:46:03;6.95;74.48
64937;SHT30;51452;47.698;19.050;2024-03-08T07:48:29;6.96;74.44
64937;SHT30;51452;47.698;19.050;2024-03-08T07:50:56;6.88;74.00
64937;SHT30;51452;47.698;19.050;2024-03-08T07:53:21;7.07;74.11
64937;SHT30;51452;47.698;19.050;2024-03-08T07:55:47;7.06;74.01
64937;SHT30;51452;47.698;19.050;2024-03-08T07:58:13;7.14;73.69
64937;SHT30;51452;47.698;19.050;2024-03-08T08:00:38;7.21;73.56
64937;SHT30;51452;47.698;19.050;2024-03-08T08:03:04;6.96;73.68
64937;SHT30;51452;47.698;19.050;2024-03-08T08:05:30;6.81;74.05
64937;SHT30;51452;47.698;19.050;2024-03-08T08:08:00;6.95;74.17
64937;SHT30;51452;47.698;19.050;2024-03-08T08:10:28;6.75;73.91
64937;SHT30;51452;47.698;19.050;2024-03-08T08:12:53;6.81;74.81
64937;SHT30;51452;47.698;19.050;2024-03-08T08:15:19;6.79;74.34
64937;SHT30;51452;47.698;19.050;2024-03-08T08:17:45;6.85;74.27
64937;SHT30;51452;47.698;19.050;2024-03-08T08:20:11;6.86;73.95
64937;SHT30;51452;47.698;19.050;2024-03-08T08:22:41;7.07;74.30
64937;SHT30;51452;47.698;19.050;2024-03-08T08:25:08;7.10;74.12
64937;SHT30;51452;47.698;19.050;2024-03-08T08:27:34;7.16;74.03
64937;SHT30;51452;47.698;19.050;2024-03-08T08:29:59;7.20;73.84
64937;SHT30;51452;47.698;19.050;2024-03-08T08:32:25;7.14;73.88
64937;SHT30;51452;47.698;19.050;2024-03-08T08:34:51;7.24;73.72
64937;SHT30;51452;47.698;19.050;2024-03-08T08:37:17;7.35;74.39
64937;SHT30;51452;47.698;19.050;2024-03-08T08:39:42;7.30;74.98
64937;SHT30;51452;47.698;19.050;2024-03-08T08:42:07;7.31;73.76
64937;SHT30;51452;47.698;19.050;2024-03-08T08:44:35;7.34;73.84
64937;SHT30;51452;47.698;19.050;2024-03-08T08:47:01;7.43;73.60
64937;SHT30;51452;47.698;19.050;2024-03-08T08:49:26;7.23;73.39
64937;SHT30;51452;47.698;19.050;2024-03-08T08:51:52;7.31;72.95
64937;SHT30;51452;47.698;19.050;2024-03-08T08:54:18;7.54;73.26
64937;SHT30;51452;47.698;19.050;2024-03-08T08:56:44;7.55;73.36
64937;SHT30;51452;47.698;19.050;2024-03-08T08:59:10;7.48;72.53
64937;SHT30;51452;47.698;19.050;2024-03-08T09:01:41;7.46;73.15
64937;SHT30;51452;47.698;19.050;2024-03-08T09:04:07;7.60;72.88
64937;SHT30;51452;47.698;19.050;2024-03-08T09:06:33;7.64;72.73
64937;SHT30;51452;47.698;19.050;2024-03-08T09:08:58;7.52;73.04
64937;SHT30;51452;47.698;19.050;2024-03-08T09:11:24;7.78;72.72
64937;SHT30;51452;47.698;19.050;2024-03-08T09:13:50;7.65;72.32
64937;SHT30;51452;47.698;19.050;2024-03-08T09:16:16;7.82;72.97
64937;SHT30;51452;47.698;19.050;2024-03-08T09:18:41;7.92;72.74
64937;SHT30;51452;47.698;19.050;2024-03-08T09:21:07;7.83;71.88
64937;SHT30;51452;47.698;19.050;2024-03-08T09:23:35;8.06;72.31
64937;SHT30;51452;47.698;19.050;2024-03-08T09:26:00;7.93;72.55
64937;SHT30;51452;47.698;19.050;2024-03-08T09:28:26;8.01;72.74
64937;SHT30;51452;47.698;19.050;2024-03-08T09:30:52;7.95;72.46
64937;SHT30;51452;47.698;19.050;2024-03-08T09:33:17;8.13;72.56
64937;SHT30;51452;47.698;19.050;2024-03-08T09:35:47;8.10;73.17
64937;SHT30;51452;47.698;19.050;2024-03-08T09:38:14;8.14;73.26
64937;SHT30;51452;47.698;19.050;2024-03-08T09:40:43;8.07;72.96
64937;SHT30;51452;47.698;19.050;2024-03-08T09:43:09;7.88;72.93
64937;SHT30;51452;47.698;19.050;2024-03-08T09:45:37;8.07;73.71
64937;SHT30;51452;47.698;19.050;2024-03-08T09:48:12;8.07;73.21
64937;SHT30;51452;47.698;19.050;2024-03-08T09:50:42;8.07;73.52
64937;SHT30;51452;47.698;19.050;2024-03-08T09:53:08;8.21;73.75
64937;SHT30;51452;47.698;19.050;2024-03-08T09:55:38;8.32;74.08
64937;SHT30;51452;47.698;19.050;2024-03-08T09:58:09;8.40;73.89
64937;SHT30;51452;47.698;19.050;2024-03-08T10:00:42;8.68;72.87
64937;SHT30;51452;47.698;19.050;2024-03-08T10:03:07;8.61;72.93
64937;SHT30;51452;47.698;19.050;2024-03-08T10:05:34;8.64;72.79
64937;SHT30;51452;47.698;19.050;2024-03-08T10:07:59;8.50;72.95
64937;SHT30;51452;47.698;19.050;2024-03-08T10:10:25;8.44;72.75
64937;SHT30;51452;47.698;19.050;2024-03-08T10:12:51;8.42;73.18
64937;SHT30;51452;47.698;19.050;2024-03-08T10:15:16;8.56;72.84
64937;SHT30;51452;47.698;19.050;2024-03-08T10:17:42;8.59;73.17
64937;SHT30;51452;47.698;19.050;2024-03-08T10:20:18;8.60;73.06
64937;SHT30;51452;47.698;19.050;2024-03-08T10:22:44;8.47;72.94
64937;SHT30;51452;47.698;19.050;2024-03-08T10:25:11;8.54;72.27
64937;SHT30;51452;47.698;19.050;2024-03-08T10:27:38;8.34;73.40
64937;SHT30;51452;47.698;19.050;2024-03-08T10:30:06;8.56;72.81
64937;SHT30;51452;47.698;19.050;2024-03-08T10:32:31;8.59;73.03
64937;SHT30;51452;47.698;19.050;2024-03-08T10:34:57;8.61;73.11
64937;SHT30;51452;47.698;19.050;2024-03-08T10:37:22;8.54;73.74
64937;SHT30;51452;47.698;19.050;2024-03-08T10:40:02;8.47;73.30
64937;SHT30;51452;47.698;19.050;2024-03-08T10:47:49;8.50;72.96
64937;SHT30;51452;47.698;19.050;2024-03-08T10:50:20;8.50;73.48
64937;SHT30;51452;47.698;19.050;2024-03-08T10:52:51;8.56;73.04
64937;SHT30;51452;47.698;19.050;2024-03-08T10:55:18;8.77;73.04
64937;SHT30;51452;47.698;19.050;2024-03-08T10:57:46;8.70;72.66
64937;SHT30;51452;47.698;19.050;2024-03-08T11:00:12;8.78;73.13
64937;SHT30;51452;47.698;19.050;2024-03-08T11:02:38;8.88;72.82
64937;SHT30;51452;47.698;19.050;2024-03-08T11:05:04;8.91;72.14
64937;SHT30;51452;47.698;19.050;2024-03-08T11:07:34;9.01;71.86
64937;SHT30;51452;47.698;19.050;2024-03-08T11:10:03;9.05;71.96
64937;SHT30;51452;47.698;19.050;2024-03-08T11:12:36;9.02;72.04
64937;SHT30;51452;47.698;19.050;2024-03-08T11:15:10;9.02;70.78
64937;SHT30;51452;47.698;19.050;2024-03-08T11:20:09;9.00;70.89
64937;SHT30;51452;47.698;19.050;2024-03-08T11:22:41;8.87;71.09
64937;SHT30;51452;47.698;19.050;2024-03-08T11:25:09;8.84;72.16
64937;SHT30;51452;47.698;19.050;2024-03-08T11:27:38;9.04;72.12
64937;SHT30;51452;47.698;19.050;2024-03-08T11:30:05;9.02;71.89
64937;SHT30;51452;47.698;19.050;2024-03-08T11:32:37;9.05;71.30
64937;SHT30;51452;47.698;19.050;2024-03-08T11:35:07;8.92;72.32
64937;SHT30;51452;47.698;19.050;2024-03-08T11:37:34;8.98;71.79
64937;SHT30;51452;47.698;19.050;2024-03-08T11:40:00;9.05;71.79
64937;SHT30;51452;47.698;19.050;2024-03-08T11:42:29;9.07;71.45
64937;SHT30;51452;47.698;19.050;2024-03-08T11:44:56;9.01;71.64
64937;SHT30;51452;47.698;19.050;2024-03-08T11:47:22;8.97;72.43
64937;SHT30;51452;47.698;19.050;2024-03-08T11:49:47;9.01;72.47
64937;SHT30;51452;47.698;19.050;2024-03-08T11:52:17;8.75;72.63
64937;SHT30;51452;47.698;19.050;2024-03-08T11:54:48;8.84;72.56
64937;SHT30;51452;47.698;19.050;2024-03-08T11:57:18;8.74;72.45
64937;SHT30;51452;47.698;19.050;2024-03-08T11:59:54;8.70;73.17
64937;SHT30;51452;47.698;19.050;2024-03-08T12:02:21;8.59;73.18
64937;SHT30;51452;47.698;19.050;2024-03-08T12:04:47;8.43;73.47
64937;SHT30;51452;47.698;19.050;2024-03-08T12:07:12;8.33;73.40
64937;SHT30;51452;47.698;19.050;2024-03-08T12:09:40;8.29;74.18
64937;SHT30;51452;47.698;19.050;2024-03-08T12:12:07;8.32;73.75
64937;SHT30;51452;47.698;19.050;2024-03-08T12:14:35;8.36;73.99
64937;SHT30;51452;47.698;19.050;2024-03-08T12:17:01;8.32;74.10
64937;SHT30;51452;47.698;19.050;2024-03-08T12:19:28;8.33;74.06
64937;SHT30;51452;47.698;19.050;2024-03-08T12:21:54;8.28;73.99
64937;SHT30;51452;47.698;19.050;2024-03-08T12:24:20;8.10;74.66
64937;SHT30;51452;47.698;19.050;2024-03-08T12:26:47;8.17;74.52
64937;SHT30;51452;47.698;19.050;2024-03-08T12:29:26;8.21;74.58
64937;SHT30;51452;47.698;19.050;2024-03-08T12:31:54;8.28;74.51
64937;SHT30;51452;47.698;19.050;2024-03-08T12:34:20;8.25;74.60
64937;SHT30;51452;47.698;19.050;2024-03-08T12:36:50;8.19;75.07
64937;SHT30;51452;47.698;19.050;2024-03-08T12:39:17;8.22;74.70
64937;SHT30;51452;47.698;19.050;2024-03-08T12:41:48;8.19;75.41
64937;SHT30;51452;47.698;19.050;2024-03-08T12:44:13;8.33;75.02
64937;SHT30;51452;47.698;19.050;2024-03-08T12:46:39;8.21;75.39
64937;SHT30;51452;47.698;19.050;2024-03-08T12:49:10;8.42;74.89
64937;SHT30;51452;47.698;19.050;2024-03-08T12:51:37;8.26;74.41
64937;SHT30;51452;47.698;19.050;2024-03-08T12:54:04;8.19;74.87
64937;SHT30;51452;47.698;19.050;2024-03-08T12:56:33;8.13;75.03
64937;SHT30;51452;47.698;19.050;2024-03-08T12:59:00;8.23;74.77
64937;SHT30;51452;47.698;19.050;2024-03-08T13:01:26;8.14;75.48
64937;SHT30;51452;47.698;19.050;2024-03-08T13:03:52;8.16;74.87
64937;SHT30;51452;47.698;19.050;2024-03-08T13:06:19;8.22;75.08
64937;SHT30;51452;47.698;19.050;2024-03-08T13:08:47;8.34;74.99
64937;SHT30;51452;47.698;19.050;2024-03-08T13:11:13;8.39;74.60
64937;SHT30;51452;47.698;19.050;2024-03-08T13:13:39;8.23;75.01
64937;SHT30;51452;47.698;19.050;2024-03-08T13:16:06;8.34;74.71
64937;SHT30;51452;47.698;19.050;2024-03-08T13:18:35;8.33;74.60
64937;SHT30;51452;47.698;19.050;2024-03-08T13:21:00;8.39;74.41
64937;SHT30;51452;47.698;19.050;2024-03-08T13:23:32;8.42;74.12
64937;SHT30;51452;47.698;19.050;2024-03-08T13:25:57;8.64;73.76
64937;SHT30;51452;47.698;19.050;2024-03-08T13:28:23;8.67;73.46
64937;SHT30;51452;47.698;19.050;2024-03-08T13:30:53;8.59;73.66
64937;SHT30;51452;47.698;19.050;2024-03-08T13:33:19;8.67;73.66
64937;SHT30;51452;47.698;19.050;2024-03-08T13:35:45;8.57;73.98
64937;SHT30;51452;47.698;19.050;2024-03-08T13:38:11;8.61;73.98
64937;SHT30;51452;47.698;19.050;2024-03-08T13:40:38;8.61;74.27
64937;SHT30;51452;47.698;19.050;2024-03-08T13:43:05;8.63;73.75
64937;SHT30;51452;47.698;19.050;2024-03-08T13:45:36;8.63;73.06
64937;SHT30;51452;47.698;19.050;2024-03-08T13:48:03;8.50;73.88
64937;SHT30;51452;47.698;19.050;2024-03-08T13:50:30;8.42;74.04
64937;SHT30;51452;47.698;19.050;2024-03-08T13:52:55;8.44;73.84
64937;SHT30;51452;47.698;19.050;2024-03-08T13:55:21;8.25;74.25
64937;SHT30;51452;47.698;19.050;2024-03-08T13:57:48;8.21;74.31
64937;SHT30;51452;47.698;19.050;2024-03-08T14:00:14;8.26;74.40
64937;SHT30;51452;47.698;19.050;2024-03-08T14:02:40;8.28;74.90
64937;SHT30;51452;47.698;19.050;2024-03-08T14:05:06;8.22;75.13
64937;SHT30;51452;47.698;19.050;2024-03-08T14:07:34;8.29;75.06
64937;SHT30;51452;47.698;19.050;2024-03-08T14:09:59;8.34;75.16
64937;SHT30;51452;47.698;19.050;2024-03-08T14:12:25;8.23;75.29
64937;SHT30;51452;47.698;19.050;2024-03-08T14:14:52;8.21;75.63
64937;SHT30;51452;47.698;19.050;2024-03-08T14:17:17;8.16;75.67
64937;SHT30;51452;47.698;19.050;2024-03-08T14:19:43;8.26;75.70
64937;SHT30;51452;47.698;19.050;2024-03-08T14:22:08;8.32;75.39
64937;SHT30;51452;47.698;19.050;2024-03-08T14:24:38;8.21;75.92
64937;SHT30;51452;47.698;19.050;2024-03-08T14:27:04;8.07;75.72
64937;SHT30;51452;47.698;19.050;2024-03-08T14:29:30;8.09;75.99
64937;SHT30;51452;47.698;19.050;2024-03-08T14:31:58;8.03;76.38
64937;SHT30;51452;47.698;19.050;2024-03-08T14:34:24;8.10;76.26
64937;SHT30;51452;47.698;19.050;2024-03-08T14:36:52;8.16;76.02
64937;SHT30;51452;47.698;19.050;2024-03-08T14:39:18;8.06;76.38
64937;SHT30;51452;47.698;19.050;2024-03-08T14:41:50;8.06;76.60
64937;SHT30;51452;47.698;19.050;2024-03-08T14:44:19;8.19;75.90
64937;SHT30;51452;47.698;19.050;2024-03-08T14:46:44;8.10;75.77
64937;SHT30;51452;47.698;19.050;2024-03-08T14:49:11;8.07;75.97
64937;SHT30;51452;47.698;19.050;2024-03-08T14:51:36;8.22;75.42
64937;SHT30;51452;47.698;19.050;2024-03-08T14:54:01;8.32;75.67
64937;SHT30;51452;47.698;19.050;2024-03-08T14:56:27;8.34;74.94
64937;SHT30;51452;47.698;19.050;2024-03-08T14:58:52;8.43;74.97
64937;SHT30;51452;47.698;19.050;2024-03-08T15:01:18;8.33;74.89
64937;SHT30;51452;47.698;19.050;2024-03-08T15:03:49;8.49;75.04
64937;SHT30;51452;47.698;19.050;2024-03-08T15:06:15;8.43;74.60
64937;SHT30;51452;47.698;19.050;2024-03-08T15:08:46;8.52;74.85
64937;SHT30;51452;47.698;19.050;2024-03-08T15:11:12;8.29;74.72
64937;SHT30;51452;47.698;19.050;2024-03-08T15:13:37;8.09;74.80
64937;SHT30;51452;47.698;19.050;2024-03-08T15:16:08;8.23;74.94
64937;SHT30;51452;47.698;19.050;2024-03-08T15:18:34;8.05;75.21
64937;SHT30;51452;47.698;19.050;2024-03-08T15:21:01;8.19;75.33
64937;SHT30;51452;47.698;19.050;2024-03-08T15:23:28;8.26;74.96
64937;SHT30;51452;47.698;19.050;2024-03-08T15:25:54;8.14;74.91
64937;SHT30;51452;47.698;19.050;2024-03-08T15:28:19;8.29;74.58
64937;SHT30;51452;47.698;19.050;2024-03-08T15:30:51;8.23;74.95
64937;SHT30;51452;47.698;19.050;2024-03-08T15:33:20;8.22;74.76